sensor_id;sensor_type;location;lat;lon;timestamp;temperature;humidity
67862;DHT22;54665;51.462;6.698;2023-07-02T00:00:08;17.06;84.71
67862;DHT22;54665;51.462;6.698;2023-07-02T00:02:37;17.04;84.80
67862;DHT22;54665;51.462;6.698;2023-07-02T00:05:02;17.08;84.57
67862;DHT22;54665;51.462;6.698;2023-07-02T00:07:28;17.08;84.72
67862;DHT22;54665;51.462;6.698;2023-07-02T00:09:53;17.04;84.78
67862;DHT22;54665;51.462;6.698;2023-07-02T00:12:18;17.02;84.64
67862;DHT22;54665;51.462;6.698;2023-07-02T00:14:44;17.04;84.29
67862;DHT22;54665;51.462;6.698;2023-07-02T00:17:09;17.01;84.52
67862;DHT22;54665;51.462;6.698;2023-07-02T00:19:34;17.06;84.28
67862;DHT22;54665;51.462;6.698;2023-07-02T00:22:00;17.04;84.32
67862;DHT22;54665;51.462;6.698;2023-07-02T00:24:25;17.01;84.35
67862;DHT22;54665;51.462;6.698;2023-07-02T00:26:50;16.99;84.41
67862;DHT22;54665;51.462;6.698;2023-07-02T00:29:16;17.04;83.92
67862;DHT22;54665;51.462;6.698;2023-07-02T00:31:41;17.05;83.63
67862;DHT22;54665;51.462;6.698;2023-07-02T00:34:06;17.08;83.58
67862;DHT22;54665;51.462;6.698;2023-07-02T00:36:32;17.02;83.69
67862;DHT22;54665;51.462;6.698;2023-07-02T00:38:57;17.05;83.27
67862;DHT22;54665;51.462;6.698;2023-07-02T00:41:23;16.98;83.56
67862;DHT22;54665;51.462;6.698;2023-07-02T00:43:49;16.89;83.28
67862;DHT22;54665;51.462;6.698;2023-07-02T00:46:16;16.82;83.55
67862;DHT22;54665;51.462;6.698;2023-07-02T00:48:43;16.75;83.86
67862;DHT22;54665;51.462;6.698;2023-07-02T00:51:10;16.65;84.17
67862;DHT22;54665;51.462;6.698;2023-07-02T00:53:36;16.67;84.21
67862;DHT22;54665;51.462;6.698;2023-07-02T00:56:02;16.61;84.41
67862;DHT22;54665;51.462;6.698;2023-07-02T00:58:27;16.60;84.42
67862;DHT22;54665;51.462;6.698;2023-07-02T01:00:53;16.60;83.86
67862;DHT22;54665;51.462;6.698;2023-07-02T01:03:18;16.57;83.98
67862;DHT22;54665;51.462;6.698;2023-07-02T01:05:43;16.44;84.30
67862;DHT22;54665;51.462;6.698;2023-07-02T01:08:09;16.31;84.61
67862;DHT22;54665;51.462;6.698;2023-07-02T01:10:34;16.21;84.84
67862;DHT22;54665;51.462;6.698;2023-07-02T01:13:02;16.10;84.88
67862;DHT22;54665;51.462;6.698;2023-07-02T01:15:29;15.96;85.27
67862;DHT22;54665;51.462;6.698;2023-07-02T01:17:55;15.96;85.24
67862;DHT22;54665;51.462;6.698;2023-07-02T01:20:21;15.82;85.29
67862;DHT22;54665;51.462;6.698;2023-07-02T01:22:48;15.89;85.30
67862;DHT22;54665;51.462;6.698;2023-07-02T01:25:15;15.76;85.37
67862;DHT22;54665;51.462;6.698;2023-07-02T01:27:41;15.75;85.76
67862;DHT22;54665;51.462;6.698;2023-07-02T01:30:07;15.82;85.27
67862;DHT22;54665;51.462;6.698;2023-07-02T01:32:32;15.96;84.71
67862;DHT22;54665;51.462;6.698;2023-07-02T01:34:58;15.99;84.57
67862;DHT22;54665;51.462;6.698;2023-07-02T01:37:23;16.06;84.81
67862;DHT22;54665;51.462;6.698;2023-07-02T01:39:48;16.07;84.62
67862;DHT22;54665;51.462;6.698;2023-07-02T01:42:15;16.14;84.35
67862;DHT22;54665;51.462;6.698;2023-07-02T01:44:41;16.24;83.92
67862;DHT22;54665;51.462;6.698;2023-07-02T01:47:07;16.31;83.79
67862;DHT22;54665;51.462;6.698;2023-07-02T01:49:32;16.36;83.47
67862;DHT22;54665;51.462;6.698;2023-07-02T01:51:58;16.34;83.59
67862;DHT22;54665;51.462;6.698;2023-07-02T01:54:27;16.37;83.20
67862;DHT22;54665;51.462;6.698;2023-07-02T01:56:53;16.36;83.27
67862;DHT22;54665;51.462;6.698;2023-07-02T01:59:19;16.36;83.10
67862;DHT22;54665;51.462;6.698;2023-07-02T02:01:44;16.38;83.39
67862;DHT22;54665;51.462;6.698;2023-07-02T02:04:10;16.36;83.09
67862;DHT22;54665;51.462;6.698;2023-07-02T02:06:36;16.38;83.10
67862;DHT22;54665;51.462;6.698;2023-07-02T02:09:02;16.37;82.99
67862;DHT22;54665;51.462;6.698;2023-07-02T02:11:28;16.38;82.75
67862;DHT22;54665;51.462;6.698;2023-07-02T02:13:53;16.36;82.92
67862;DHT22;54665;51.462;6.698;2023-07-02T02:16:20;16.34;83.09
67862;DHT22;54665;51.462;6.698;2023-07-02T02:18:45;16.33;82.52
67862;DHT22;54665;51.462;6.698;2023-07-02T02:21:11;16.31;82.74
67862;DHT22;54665;51.462;6.698;2023-07-02T02:23:36;16.38;82.48
67862;DHT22;54665;51.462;6.698;2023-07-02T02:26:01;16.40;81.68
67862;DHT22;54665;51.462;6.698;2023-07-02T02:28:26;16.47;81.99
67862;DHT22;54665;51.462;6.698;2023-07-02T02:30:52;16.48;81.54
67862;DHT22;54665;51.462;6.698;2023-07-02T02:33:17;16.55;81.66
67862;DHT22;54665;51.462;6.698;2023-07-02T02:35:43;16.57;80.87
67862;DHT22;54665;51.462;6.698;2023-07-02T02:38:09;16.60;81.16
67862;DHT22;54665;51.462;6.698;2023-07-02T02:40:34;16.58;80.92
67862;DHT22;54665;51.462;6.698;2023-07-02T02:43:00;16.58;81.25
67862;DHT22;54665;51.462;6.698;2023-07-02T02:45:25;16.57;80.88
67862;DHT22;54665;51.462;6.698;2023-07-02T02:47:50;16.55;80.99
67862;DHT22;54665;51.462;6.698;2023-07-02T02:50:16;16.51;80.79
67862;DHT22;54665;51.462;6.698;2023-07-02T02:52:41;16.50;80.93
67862;DHT22;54665;51.462;6.698;2023-07-02T02:55:08;16.44;81.05
67862;DHT22;54665;51.462;6.698;2023-07-02T02:57:34;16.38;81.06
67862;DHT22;54665;51.462;6.698;2023-07-02T02:59:59;16.31;81.40
67862;DHT22;54665;51.462;6.698;2023-07-02T03:02:25;16.24;82.02
67862;DHT22;54665;51.462;6.698;2023-07-02T03:04:50;16.16;81.82
67862;DHT22;54665;51.462;6.698;2023-07-02T03:07:16;16.07;82.19
67862;DHT22;54665;51.462;6.698;2023-07-02T03:09:41;16.09;82.10
67862;DHT22;54665;51.462;6.698;2023-07-02T03:12:06;16.06;82.35
67862;DHT22;54665;51.462;6.698;2023-07-02T03:14:32;16.05;82.38
67862;DHT22;54665;51.462;6.698;2023-07-02T03:16:58;16.06;82.59
67862;DHT22;54665;51.462;6.698;2023-07-02T03:19:24;16.07;82.21
67862;DHT22;54665;51.462;6.698;2023-07-02T03:21:49;16.14;82.38
67862;DHT22;54665;51.462;6.698;2023-07-02T03:24:15;16.14;82.31
67862;DHT22;54665;51.462;6.698;2023-07-02T03:26:40;16.13;82.58
67862;DHT22;54665;51.462;6.698;2023-07-02T03:29:06;16.13;82.21
67862;DHT22;54665;51.462;6.698;2023-07-02T03:31:32;16.13;82.14
67862;DHT22;54665;51.462;6.698;2023-07-02T03:33:57;16.12;82.44
67862;DHT22;54665;51.462;6.698;2023-07-02T03:36:22;16.13;82.53
67862;DHT22;54665;51.462;6.698;2023-07-02T03:38:47;16.13;82.44
67862;DHT22;54665;51.462;6.698;2023-07-02T03:41:13;16.17;82.28
67862;DHT22;54665;51.462;6.698;2023-07-02T03:43:38;16.17;82.27
67862;DHT22;54665;51.462;6.698;2023-07-02T03:46:03;16.20;82.54
67862;DHT22;54665;51.462;6.698;2023-07-02T03:48:29;16.21;82.15
67862;DHT22;54665;51.462;6.698;2023-07-02T03:50:54;16.17;82.42
67862;DHT22;54665;51.462;6.698;2023-07-02T03:53:19;16.20;82.12
67862;DHT22;54665;51.462;6.698;2023-07-02T03:55:45;16.20;82.40
67862;DHT22;54665;51.462;6.698;2023-07-02T03:58:10;16.14;82.39
67862;DHT22;54665;51.462;6.698;2023-07-02T04:00:35;16.18;82.56
67862;DHT22;54665;51.462;6.698;2023-07-02T04:03:00;16.17;82.16
67862;DHT22;54665;51.462;6.698;2023-07-02T04:05:26;16.14;82.39
67862;DHT22;54665;51.462;6.698;2023-07-02T04:07:51;16.12;82.53
67862;DHT22;54665;51.462;6.698;2023-07-02T04:10:16;16.09;82.59
67862;DHT22;54665;51.462;6.698;2023-07-02T04:12:42;16.13;82.51
67862;DHT22;54665;51.462;6.698;2023-07-02T04:15:07;16.17;82.51
67862;DHT22;54665;51.462;6.698;2023-07-02T04:17:33;16.24;82.33
67862;DHT22;54665;51.462;6.698;2023-07-02T04:20:00;16.23;82.24
67862;DHT22;54665;51.462;6.698;2023-07-02T04:22:25;16.26;82.25
67862;DHT22;54665;51.462;6.698;2023-07-02T04:24:50;16.30;82.12
67862;DHT22;54665;51.462;6.698;2023-07-02T04:27:16;16.28;82.06
67862;DHT22;54665;51.462;6.698;2023-07-02T04:29:41;16.27;82.02
67862;DHT22;54665;51.462;6.698;2023-07-02T04:32:07;16.28;82.33
67862;DHT22;54665;51.462;6.698;2023-07-02T04:34:33;16.36;82.17
67862;DHT22;54665;51.462;6.698;2023-07-02T04:36:58;16.40;82.18
67862;DHT22;54665;51.462;6.698;2023-07-02T04:39:23;16.51;82.32
67862;DHT22;54665;51.462;6.698;2023-07-02T04:41:49;16.44;82.53
67862;DHT22;54665;51.462;6.698;2023-07-02T04:44:14;16.48;82.21
67862;DHT22;54665;51.462;6.698;2023-07-02T04:46:39;16.55;82.16
67862;DHT22;54665;51.462;6.698;2023-07-02T04:49:04;16.61;81.98
67862;DHT22;54665;51.462;6.698;2023-07-02T04:51:30;16.58;81.99
67862;DHT22;54665;51.462;6.698;2023-07-02T04:53:55;16.63;81.23
67862;DHT22;54665;51.462;6.698;2023-07-02T04:56:20;16.67;81.59
67862;DHT22;54665;51.462;6.698;2023-07-02T04:58:46;16.61;81.26
67862;DHT22;54665;51.462;6.698;2023-07-02T05:01:11;16.65;81.44
67862;DHT22;54665;51.462;6.698;2023-07-02T05:03:37;16.69;81.73
67862;DHT22;54665;51.462;6.698;2023-07-02T05:06:02;16.72;81.10
67862;DHT22;54665;51.462;6.698;2023-07-02T05:08:28;16.87;81.23
67862;DHT22;54665;51.462;6.698;2023-07-02T05:10:53;16.81;80.55
67862;DHT22;54665;51.462;6.698;2023-07-02T05:13:18;16.99;80.69
67862;DHT22;54665;51.462;6.698;2023-07-02T05:15:44;17.08;80.61
67862;DHT22;54665;51.462;6.698;2023-07-02T05:18:09;17.18;80.15
67862;DHT22;54665;51.462;6.698;2023-07-02T05:20:34;17.23;79.95
67862;DHT22;54665;51.462;6.698;2023-07-02T05:23:00;17.19;80.33
67862;DHT22;54665;51.462;6.698;2023-07-02T05:25:25;17.08;80.74
67862;DHT22;54665;51.462;6.698;2023-07-02T05:27:50;17.06;80.64
67862;DHT22;54665;51.462;6.698;2023-07-02T05:30:15;16.98;80.53
67862;DHT22;54665;51.462;6.698;2023-07-02T05:32:42;17.20;80.78
67862;DHT22;54665;51.462;6.698;2023-07-02T05:35:07;16.98;80.40
67862;DHT22;54665;51.462;6.698;2023-07-02T05:37:33;17.16;80.62
67862;DHT22;54665;51.462;6.698;2023-07-02T05:39:58;17.19;80.18
67862;DHT22;54665;51.462;6.698;2023-07-02T05:42:23;17.22;79.20
67862;DHT22;54665;51.462;6.698;2023-07-02T05:44:49;17.39;79.15
67862;DHT22;54665;51.462;6.698;2023-07-02T05:47:15;17.42;79.09
67862;DHT22;54665;51.462;6.698;2023-07-02T05:49:41;17.33;79.05
67862;DHT22;54665;51.462;6.698;2023-07-02T05:52:07;17.35;78.62
67862;DHT22;54665;51.462;6.698;2023-07-02T05:54:32;17.50;78.73
67862;DHT22;54665;51.462;6.698;2023-07-02T05:56:57;17.83;77.06
67862;DHT22;54665;51.462;6.698;2023-07-02T05:59:22;18.22;76.02
67862;DHT22;54665;51.462;6.698;2023-07-02T06:01:48;19.43;73.41
67862;DHT22;54665;51.462;6.698;2023-07-02T06:04:13;19.38;71.82
67862;DHT22;54665;51.462;6.698;2023-07-02T06:06:39;19.32;72.60
67862;DHT22;54665;51.462;6.698;2023-07-02T06:09:04;19.11;73.18
67862;DHT22;54665;51.462;6.698;2023-07-02T06:11:29;18.88;73.01
67862;DHT22;54665;51.462;6.698;2023-07-02T06:13:54;19.61;69.53
67862;DHT22;54665;51.462;6.698;2023-07-02T06:16:20;19.67;69.31
67862;DHT22;54665;51.462;6.698;2023-07-02T06:18:45;20.30;67.12
67862;DHT22;54665;51.462;6.698;2023-07-02T06:21:10;20.88;66.55
67862;DHT22;54665;51.462;6.698;2023-07-02T06:23:42;21.24;65.54
67862;DHT22;54665;51.462;6.698;2023-07-02T06:26:08;21.81;61.29
67862;DHT22;54665;51.462;6.698;2023-07-02T06:28:33;20.77;63.92
67862;DHT22;54665;51.462;6.698;2023-07-02T06:30:58;20.13;63.17
67862;DHT22;54665;51.462;6.698;2023-07-02T06:33:24;19.86;64.68
67862;DHT22;54665;51.462;6.698;2023-07-02T06:35:49;20.01;64.38
67862;DHT22;54665;51.462;6.698;2023-07-02T06:38:15;19.92;66.45
67862;DHT22;54665;51.462;6.698;2023-07-02T06:40:40;19.47;62.87
67862;DHT22;54665;51.462;6.698;2023-07-02T06:43:05;19.58;64.09
67862;DHT22;54665;51.462;6.698;2023-07-02T06:45:31;19.99;63.30
67862;DHT22;54665;51.462;6.698;2023-07-02T06:47:56;19.70;64.44
67862;DHT22;54665;51.462;6.698;2023-07-02T06:50:21;19.65;66.18
67862;DHT22;54665;51.462;6.698;2023-07-02T06:52:46;19.68;64.01
67862;DHT22;54665;51.462;6.698;2023-07-02T06:55:12;20.54;62.29
67862;DHT22;54665;51.462;6.698;2023-07-02T06:57:42;20.26;61.85
67862;DHT22;54665;51.462;6.698;2023-07-02T07:00:08;20.49;61.26
67862;DHT22;54665;51.462;6.698;2023-07-02T07:02:33;19.95;62.33
67862;DHT22;54665;51.462;6.698;2023-07-02T07:04:59;20.30;63.60
67862;DHT22;54665;51.462;6.698;2023-07-02T07:07:27;20.18;64.33
67862;DHT22;54665;51.462;6.698;2023-07-02T07:09:52;19.96;62.50
67862;DHT22;54665;51.462;6.698;2023-07-02T07:12:18;20.98;59.34
67862;DHT22;54665;51.462;6.698;2023-07-02T07:14:43;20.33;58.55
67862;DHT22;54665;51.462;6.698;2023-07-02T07:17:08;19.77;60.39
67862;DHT22;54665;51.462;6.698;2023-07-02T07:19:33;20.12;58.20
67862;DHT22;54665;51.462;6.698;2023-07-02T07:21:59;19.83;59.83
67862;DHT22;54665;51.462;6.698;2023-07-02T07:24:24;20.57;56.36
67862;DHT22;54665;51.462;6.698;2023-07-02T07:26:49;20.32;55.67
67862;DHT22;54665;51.462;6.698;2023-07-02T07:29:14;20.56;55.69
67862;DHT22;54665;51.462;6.698;2023-07-02T07:31:40;20.53;56.33
67862;DHT22;54665;51.462;6.698;2023-07-02T07:34:05;20.87;54.50
67862;DHT22;54665;51.462;6.698;2023-07-02T07:36:30;20.69;54.40
67862;DHT22;54665;51.462;6.698;2023-07-02T07:38:56;20.36;54.97
67862;DHT22;54665;51.462;6.698;2023-07-02T07:41:21;21.11;54.87
67862;DHT22;54665;51.462;6.698;2023-07-02T07:43:46;21.32;55.56
67862;DHT22;54665;51.462;6.698;2023-07-02T07:46:11;21.75;52.50
67862;DHT22;54665;51.462;6.698;2023-07-02T07:48:37;21.31;55.20
67862;DHT22;54665;51.462;6.698;2023-07-02T07:51:02;20.83;55.22
67862;DHT22;54665;51.462;6.698;2023-07-02T07:53:27;20.77;53.01
67862;DHT22;54665;51.462;6.698;2023-07-02T07:55:53;20.67;53.13
67862;DHT22;54665;51.462;6.698;2023-07-02T07:58:18;20.63;54.09
67862;DHT22;54665;51.462;6.698;2023-07-02T08:00:44;20.26;52.75
67862;DHT22;54665;51.462;6.698;2023-07-02T08:03:10;20.60;54.22
67862;DHT22;54665;51.462;6.698;2023-07-02T08:05:35;20.60;54.47
67862;DHT22;54665;51.462;6.698;2023-07-02T08:08:00;19.91;55.76
67862;DHT22;54665;51.462;6.698;2023-07-02T08:10:27;20.53;54.86
67862;DHT22;54665;51.462;6.698;2023-07-02T08:12:52;21.35;53.52
67862;DHT22;54665;51.462;6.698;2023-07-02T08:15:18;20.43;53.27
67862;DHT22;54665;51.462;6.698;2023-07-02T08:17:43;21.00;52.25
67862;DHT22;54665;51.462;6.698;2023-07-02T08:20:09;21.30;48.16
67862;DHT22;54665;51.462;6.698;2023-07-02T08:22:35;20.09;51.14
67862;DHT22;54665;51.462;6.698;2023-07-02T08:25:01;20.19;51.40
67862;DHT22;54665;51.462;6.698;2023-07-02T08:27:26;20.87;49.92
67862;DHT22;54665;51.462;6.698;2023-07-02T08:29:51;19.98;49.91
67862;DHT22;54665;51.462;6.698;2023-07-02T08:32:17;20.56;51.01
67862;DHT22;54665;51.462;6.698;2023-07-02T08:34:42;22.29;46.61
67862;DHT22;54665;51.462;6.698;2023-07-02T08:37:07;21.45;48.21
67862;DHT22;54665;51.462;6.698;2023-07-02T08:39:33;20.34;48.89
67862;DHT22;54665;51.462;6.698;2023-07-02T08:41:58;20.40;52.47
67862;DHT22;54665;51.462;6.698;2023-07-02T08:44:24;21.20;48.18
67862;DHT22;54665;51.462;6.698;2023-07-02T08:46:50;21.88;49.11
67862;DHT22;54665;51.462;6.698;2023-07-02T08:49:15;21.42;49.11
67862;DHT22;54665;51.462;6.698;2023-07-02T08:51:40;22.14;48.20
67862;DHT22;54665;51.462;6.698;2023-07-02T08:54:06;21.97;48.26
67862;DHT22;54665;51.462;6.698;2023-07-02T08:56:31;21.69;51.09
67862;DHT22;54665;51.462;6.698;2023-07-02T08:58:56;22.45;47.27
67862;DHT22;54665;51.462;6.698;2023-07-02T09:01:22;21.45;48.86
67862;DHT22;54665;51.462;6.698;2023-07-02T09:03:49;21.39;49.87
67862;DHT22;54665;51.462;6.698;2023-07-02T09:06:17;21.56;49.80
67862;DHT22;54665;51.462;6.698;2023-07-02T09:08:43;22.10;50.05
67862;DHT22;54665;51.462;6.698;2023-07-02T09:11:12;21.28;52.59
67862;DHT22;54665;51.462;6.698;2023-07-02T09:13:46;20.94;53.98
67862;DHT22;54665;51.462;6.698;2023-07-02T09:16:31;22.78;50.39
67862;DHT22;54665;51.462;6.698;2023-07-02T09:19:07;22.85;48.57
67862;DHT22;54665;51.462;6.698;2023-07-02T09:21:48;23.39;47.72
67862;DHT22;54665;51.462;6.698;2023-07-02T09:24:15;23.74;47.50
67862;DHT22;54665;51.462;6.698;2023-07-02T09:26:43;22.90;47.39
67862;DHT22;54665;51.462;6.698;2023-07-02T09:29:08;22.20;50.43
67862;DHT22;54665;51.462;6.698;2023-07-02T09:31:43;20.79;53.07
67862;DHT22;54665;51.462;6.698;2023-07-02T09:34:08;20.29;53.65
67862;DHT22;54665;51.462;6.698;2023-07-02T09:36:34;20.08;55.91
67862;DHT22;54665;51.462;6.698;2023-07-02T09:38:59;19.81;52.16
67862;DHT22;54665;51.462;6.698;2023-07-02T09:41:27;19.85;52.97
67862;DHT22;54665;51.462;6.698;2023-07-02T09:43:53;19.48;53.12
67862;DHT22;54665;51.462;6.698;2023-07-02T09:46:18;19.55;52.42
67862;DHT22;54665;51.462;6.698;2023-07-02T09:48:44;19.81;51.67
67862;DHT22;54665;51.462;6.698;2023-07-02T09:51:09;20.20;50.22
67862;DHT22;54665;51.462;6.698;2023-07-02T09:53:34;20.70;50.96
67862;DHT22;54665;51.462;6.698;2023-07-02T09:56:00;20.57;50.39
67862;DHT22;54665;51.462;6.698;2023-07-02T09:58:25;21.12;47.56
67862;DHT22;54665;51.462;6.698;2023-07-02T10:00:51;21.51;49.45
67862;DHT22;54665;51.462;6.698;2023-07-02T10:03:16;21.15;50.78
67862;DHT22;54665;51.462;6.698;2023-07-02T10:05:41;20.95;48.31
67862;DHT22;54665;51.462;6.698;2023-07-02T10:08:14;21.67;47.83
67862;DHT22;54665;51.462;6.698;2023-07-02T10:10:40;23.16;46.88
67862;DHT22;54665;51.462;6.698;2023-07-02T10:13:05;23.66;45.05
67862;DHT22;54665;51.462;6.698;2023-07-02T10:15:31;23.36;44.63
67862;DHT22;54665;51.462;6.698;2023-07-02T10:18:01;22.64;48.59
67862;DHT22;54665;51.462;6.698;2023-07-02T10:20:38;22.92;46.35
67862;DHT22;54665;51.462;6.698;2023-07-02T10:23:04;21.21;50.94
67862;DHT22;54665;51.462;6.698;2023-07-02T10:25:32;20.71;54.55
67862;DHT22;54665;51.462;6.698;2023-07-02T10:27:58;20.81;51.06
67862;DHT22;54665;51.462;6.698;2023-07-02T10:30:36;20.90;49.66
67862;DHT22;54665;51.462;6.698;2023-07-02T10:33:12;20.71;49.67
67862;DHT22;54665;51.462;6.698;2023-07-02T10:35:39;20.12;50.13
67862;DHT22;54665;51.462;6.698;2023-07-02T10:38:05;20.49;49.60
67862;DHT22;54665;51.462;6.698;2023-07-02T10:40:31;20.29;50.97
67862;DHT22;54665;51.462;6.698;2023-07-02T10:42:56;20.39;50.55
67862;DHT22;54665;51.462;6.698;2023-07-02T10:45:31;20.56;49.19
67862;DHT22;54665;51.462;6.698;2023-07-02T10:47:56;20.54;49.54
67862;DHT22;54665;51.462;6.698;2023-07-02T10:50:22;20.73;49.28
67862;DHT22;54665;51.462;6.698;2023-07-02T10:52:47;20.98;47.57
67862;DHT22;54665;51.462;6.698;2023-07-02T10:55:23;21.72;46.01
67862;DHT22;54665;51.462;6.698;2023-07-02T10:57:50;21.81;45.94
67862;DHT22;54665;51.462;6.698;2023-07-02T11:00:15;22.27;46.58
67862;DHT22;54665;51.462;6.698;2023-07-02T11:02:41;22.54;43.85
67862;DHT22;54665;51.462;6.698;2023-07-02T11:05:07;21.90;44.64
67862;DHT22;54665;51.462;6.698;2023-07-02T11:07:33;22.82;45.10
67862;DHT22;54665;51.462;6.698;2023-07-02T11:09:58;23.46;43.49
67862;DHT22;54665;51.462;6.698;2023-07-02T11:12:28;23.27;42.04
67862;DHT22;54665;51.462;6.698;2023-07-02T11:14:54;22.78;42.82
67862;DHT22;54665;51.462;6.698;2023-07-02T11:17:24;22.79;42.58
67862;DHT22;54665;51.462;6.698;2023-07-02T11:19:51;23.27;42.41
67862;DHT22;54665;51.462;6.698;2023-07-02T11:22:16;22.60;44.05
67862;DHT22;54665;51.462;6.698;2023-07-02T11:24:41;22.44;44.50
67862;DHT22;54665;51.462;6.698;2023-07-02T11:27:07;20.85;46.34
67862;DHT22;54665;51.462;6.698;2023-07-02T11:29:36;20.71;47.96
67862;DHT22;54665;51.462;6.698;2023-07-02T11:32:08;21.02;47.61
67862;DHT22;54665;51.462;6.698;2023-07-02T11:34:33;21.35;47.81
67862;DHT22;54665;51.462;6.698;2023-07-02T11:36:59;21.46;47.66
67862;DHT22;54665;51.462;6.698;2023-07-02T11:39:24;21.41;47.02
67862;DHT22;54665;51.462;6.698;2023-07-02T11:41:49;20.66;48.49
67862;DHT22;54665;51.462;6.698;2023-07-02T11:44:15;21.83;47.17
67862;DHT22;54665;51.462;6.698;2023-07-02T11:46:40;22.17;47.49
67862;DHT22;54665;51.462;6.698;2023-07-02T11:49:05;22.54;43.49
67862;DHT22;54665;51.462;6.698;2023-07-02T11:51:31;21.73;46.41
67862;DHT22;54665;51.462;6.698;2023-07-02T11:53:57;21.18;47.92
67862;DHT22;54665;51.462;6.698;2023-07-02T11:56:22;20.74;49.41
67862;DHT22;54665;51.462;6.698;2023-07-02T11:58:47;21.94;47.15
67862;DHT22;54665;51.462;6.698;2023-07-02T12:01:12;21.86;46.20
67862;DHT22;54665;51.462;6.698;2023-07-02T12:03:38;21.85;46.37
67862;DHT22;54665;51.462;6.698;2023-07-02T12:06:03;23.04;44.58
67862;DHT22;54665;51.462;6.698;2023-07-02T12:08:29;23.36;46.59
67862;DHT22;54665;51.462;6.698;2023-07-02T12:10:54;23.94;45.31
67862;DHT22;54665;51.462;6.698;2023-07-02T12:13:19;23.88;44.30
67862;DHT22;54665;51.462;6.698;2023-07-02T12:15:45;23.22;44.17
67862;DHT22;54665;51.462;6.698;2023-07-02T12:18:10;22.95;45.83
67862;DHT22;54665;51.462;6.698;2023-07-02T12:20:35;22.64;45.28
67862;DHT22;54665;51.462;6.698;2023-07-02T12:23:01;23.06;47.03
67862;DHT22;54665;51.462;6.698;2023-07-02T12:25:26;23.36;44.72
67862;DHT22;54665;51.462;6.698;2023-07-02T12:27:51;22.76;45.30
67862;DHT22;54665;51.462;6.698;2023-07-02T12:30:17;22.20;47.66
67862;DHT22;54665;51.462;6.698;2023-07-02T12:32:43;22.13;47.91
67862;DHT22;54665;51.462;6.698;2023-07-02T12:35:08;21.96;50.32
67862;DHT22;54665;51.462;6.698;2023-07-02T12:37:34;22.23;46.86
67862;DHT22;54665;51.462;6.698;2023-07-02T12:39:59;21.75;48.11
67862;DHT22;54665;51.462;6.698;2023-07-02T12:42:24;22.39;46.06
67862;DHT22;54665;51.462;6.698;2023-07-02T12:44:50;21.96;46.94
67862;DHT22;54665;51.462;6.698;2023-07-02T12:47:15;22.30;47.15
67862;DHT22;54665;51.462;6.698;2023-07-02T12:49:40;23.11;46.54
67862;DHT22;54665;51.462;6.698;2023-07-02T12:52:05;23.04;46.73
67862;DHT22;54665;51.462;6.698;2023-07-02T12:54:31;22.75;47.01
67862;DHT22;54665;51.462;6.698;2023-07-02T12:56:56;22.41;48.14
67862;DHT22;54665;51.462;6.698;2023-07-02T12:59:21;22.82;46.59
67862;DHT22;54665;51.462;6.698;2023-07-02T13:01:47;23.36;46.23
67862;DHT22;54665;51.462;6.698;2023-07-02T13:04:12;23.76;46.83
67862;DHT22;54665;51.462;6.698;2023-07-02T13:06:37;23.09;46.38
67862;DHT22;54665;51.462;6.698;2023-07-02T13:09:03;22.29;47.98
67862;DHT22;54665;51.462;6.698;2023-07-02T13:11:28;22.54;48.70
67862;DHT22;54665;51.462;6.698;2023-07-02T13:13:53;21.62;49.74
67862;DHT22;54665;51.462;6.698;2023-07-02T13:16:18;22.02;48.68
67862;DHT22;54665;51.462;6.698;2023-07-02T13:18:44;22.47;47.80
67862;DHT22;54665;51.462;6.698;2023-07-02T13:21:09;22.55;48.74
67862;DHT22;54665;51.462;6.698;2023-07-02T13:23:34;24.14;46.20
67862;DHT22;54665;51.462;6.698;2023-07-02T13:26:00;25.00;45.01
67862;DHT22;54665;51.462;6.698;2023-07-02T13:28:25;22.88;46.86
67862;DHT22;54665;51.462;6.698;2023-07-02T13:30:50;23.87;46.70
67862;DHT22;54665;51.462;6.698;2023-07-02T13:33:16;23.93;47.58
67862;DHT22;54665;51.462;6.698;2023-07-02T13:35:41;24.29;46.00
67862;DHT22;54665;51.462;6.698;2023-07-02T13:38:06;24.54;44.83
67862;DHT22;54665;51.462;6.698;2023-07-02T13:40:32;24.92;46.26
67862;DHT22;54665;51.462;6.698;2023-07-02T13:42:57;23.42;48.03
67862;DHT22;54665;51.462;6.698;2023-07-02T13:45:22;23.13;46.85
67862;DHT22;54665;51.462;6.698;2023-07-02T13:47:48;23.43;46.58
67862;DHT22;54665;51.462;6.698;2023-07-02T13:50:13;24.49;50.17
67862;DHT22;54665;51.462;6.698;2023-07-02T13:52:38;24.80;45.29
67862;DHT22;54665;51.462;6.698;2023-07-02T13:55:04;23.84;44.98
67862;DHT22;54665;51.462;6.698;2023-07-02T13:57:30;23.33;46.19
67862;DHT22;54665;51.462;6.698;2023-07-02T13:59:55;23.96;46.12
67862;DHT22;54665;51.462;6.698;2023-07-02T14:02:20;24.77;45.16
67862;DHT22;54665;51.462;6.698;2023-07-02T14:04:46;24.07;45.46
67862;DHT22;54665;51.462;6.698;2023-07-02T14:07:11;24.35;45.79
67862;DHT22;54665;51.462;6.698;2023-07-02T14:09:37;24.62;44.58
67862;DHT22;54665;51.462;6.698;2023-07-02T14:12:02;23.94;46.93
67862;DHT22;54665;51.462;6.698;2023-07-02T14:14:28;24.48;50.31
67862;DHT22;54665;51.462;6.698;2023-07-02T14:16:53;24.99;45.45
67862;DHT22;54665;51.462;6.698;2023-07-02T14:19:19;24.90;45.86
67862;DHT22;54665;51.462;6.698;2023-07-02T14:21:44;24.00;45.93
67862;DHT22;54665;51.462;6.698;2023-07-02T14:24:10;23.98;46.05
67862;DHT22;54665;51.462;6.698;2023-07-02T14:26:36;23.43;48.07
67862;DHT22;54665;51.462;6.698;2023-07-02T14:29:01;22.76;47.07
67862;DHT22;54665;51.462;6.698;2023-07-02T14:31:27;23.47;47.81
67862;DHT22;54665;51.462;6.698;2023-07-02T14:33:52;23.15;47.62
67862;DHT22;54665;51.462;6.698;2023-07-02T14:36:18;23.43;49.01
67862;DHT22;54665;51.462;6.698;2023-07-02T14:38:43;23.74;48.41
67862;DHT22;54665;51.462;6.698;2023-07-02T14:41:09;24.87;45.11
67862;DHT22;54665;51.462;6.698;2023-07-02T14:43:34;24.76;46.69
67862;DHT22;54665;51.462;6.698;2023-07-02T14:46:02;23.96;45.96
67862;DHT22;54665;51.462;6.698;2023-07-02T14:48:27;23.15;47.88
67862;DHT22;54665;51.462;6.698;2023-07-02T14:50:54;23.26;47.67
67862;DHT22;54665;51.462;6.698;2023-07-02T14:53:20;24.07;45.12
67862;DHT22;54665;51.462;6.698;2023-07-02T14:55:47;23.96;44.95
67862;DHT22;54665;51.462;6.698;2023-07-02T14:58:13;22.95;47.34
67862;DHT22;54665;51.462;6.698;2023-07-02T15:00:47;22.25;48.44
67862;DHT22;54665;51.462;6.698;2023-07-02T15:03:12;22.32;51.02
67862;DHT22;54665;51.462;6.698;2023-07-02T15:05:38;22.84;47.09
67862;DHT22;54665;51.462;6.698;2023-07-02T15:08:04;23.81;46.07
67862;DHT22;54665;51.462;6.698;2023-07-02T15:10:29;22.36;47.48
67862;DHT22;54665;51.462;6.698;2023-07-02T15:12:54;22.29;47.95
67862;DHT22;54665;51.462;6.698;2023-07-02T15:15:19;21.72;46.73
67862;DHT22;54665;51.462;6.698;2023-07-02T15:17:45;23.42;44.99
67862;DHT22;54665;51.462;6.698;2023-07-02T15:20:10;24.58;42.84